createdAt,value
2019-03-30T22:12:05.267Z,974.45
2019-03-30T22:13:05.287Z,974.45
2019-03-30T22:14:05.339Z,974.46
2019-03-30T22:15:05.391Z,974.39
2019-03-30T22:16:05.446Z,974.44
2019-03-30T22:17:05.472Z,974.39
2019-03-30T22:18:05.510Z,974.30
2019-03-30T22:19:05.557Z,974.35
2019-03-30T22:20:05.605Z,974.31
2019-03-30T22:21:05.672Z,974.35
2019-03-30T22:22:05.689Z,974.31
2019-03-30T22:23:05.746Z,974.30
2019-03-30T22:24:05.778Z,974.35
2019-03-30T22:25:05.828Z,974.30
2019-03-30T22:26:05.890Z,974.31
2019-03-30T22:27:05.938Z,974.34
2019-03-30T22:28:05.956Z,974.31
2019-03-30T22:29:05.997Z,974.31
2019-03-30T22:30:06.041Z,974.35
2019-03-30T22:31:06.097Z,974.35
2019-03-30T22:32:06.151Z,974.34
2019-03-30T22:33:06.197Z,974.33
2019-03-30T22:34:06.237Z,974.35
2019-03-30T22:35:06.271Z,974.35
2019-03-30T22:36:06.308Z,974.35
2019-03-30T22:37:06.377Z,974.37
2019-03-30T22:38:06.415Z,974.35
2019-03-30T22:39:06.453Z,974.34
2019-03-30T22:40:06.501Z,974.35
2019-03-30T22:41:06.537Z,974.36
2019-03-30T22:42:06.607Z,974.36
2019-03-30T22:43:06.631Z,974.37
2019-03-30T22:44:06.670Z,974.36
2019-03-30T22:45:06.709Z,974.32
2019-03-30T22:46:07.634Z,974.35
2019-03-30T22:47:06.831Z,974.36
2019-03-30T22:48:06.851Z,974.39
2019-03-30T22:49:06.895Z,974.34
2019-03-30T22:50:06.931Z,974.39
2019-03-30T22:51:06.998Z,974.37
2019-03-30T22:52:07.056Z,974.41
2019-03-30T22:53:07.063Z,974.39
2019-03-30T22:54:07.120Z,974.38
2019-03-30T22:55:07.179Z,974.38
2019-03-30T22:56:07.206Z,974.37
2019-03-30T22:57:07.261Z,974.39
2019-03-30T22:58:07.292Z,974.38
2019-03-30T22:59:07.337Z,974.40
2019-03-30T23:00:07.372Z,974.38
2019-03-30T23:01:07.542Z,974.36
2019-03-30T23:02:07.495Z,974.37
2019-03-30T23:03:07.506Z,974.38
2019-03-30T23:04:07.561Z,974.39
2019-03-30T23:05:07.597Z,974.37
2019-03-30T23:06:07.647Z,974.39
2019-03-30T23:07:07.712Z,974.36
2019-03-30T23:08:07.792Z,974.37
2019-03-30T23:09:11.120Z,974.41
2019-03-30T23:10:07.819Z,974.41
2019-03-30T23:11:07.863Z,974.39
2019-03-30T23:12:07.941Z,974.38
2019-03-30T23:13:07.973Z,974.36
2019-03-30T23:14:07.996Z,974.36
2019-03-30T23:15:08.151Z,974.34
2019-03-30T23:16:08.089Z,974.36
2019-03-30T23:17:08.126Z,974.40
2019-03-30T23:18:08.191Z,974.38
2019-03-30T23:19:08.215Z,974.40
2019-03-30T23:20:08.257Z,974.39
2019-03-30T23:21:08.306Z,974.39
2019-03-30T23:22:08.426Z,974.43
2019-03-30T23:23:08.422Z,974.41
2019-03-30T23:24:08.443Z,974.42
2019-03-30T23:25:08.479Z,974.39
2019-03-30T23:26:08.540Z,974.40
2019-03-30T23:27:08.651Z,974.35
2019-03-30T23:28:08.643Z,974.33
2019-03-30T23:29:08.670Z,974.37
2019-03-30T23:30:08.709Z,974.35
2019-03-30T23:31:08.758Z,974.34
2019-03-30T23:32:08.798Z,974.39
2019-03-30T23:33:08.848Z,974.38
2019-03-30T23:34:08.901Z,974.36
2019-03-30T23:35:08.920Z,974.31
2019-03-30T23:36:08.997Z,974.31
2019-03-30T23:37:09.007Z,974.33
2019-03-30T23:38:09.078Z,974.34
2019-03-30T23:39:09.095Z,974.32
2019-03-30T23:40:09.150Z,974.34
2019-03-30T23:41:09.192Z,974.30
2019-03-30T23:42:09.259Z,974.32
2019-03-30T23:43:09.305Z,974.27
2019-03-30T23:44:09.313Z,974.30
2019-03-30T23:45:09.413Z,974.30
2019-03-30T23:46:09.405Z,974.27
2019-03-30T23:47:09.449Z,974.28
2019-03-30T23:48:09.518Z,974.27
2019-03-30T23:49:09.563Z,974.23
2019-03-30T23:50:09.579Z,974.25
2019-03-30T23:51:09.628Z,974.22
2019-03-30T23:52:09.813Z,974.23
2019-03-30T23:53:09.731Z,974.21
2019-03-30T23:54:09.776Z,974.22
2019-03-30T23:55:09.820Z,974.21
2019-03-30T23:56:09.841Z,974.23
2019-03-30T23:57:09.886Z,974.23
2019-03-30T23:58:09.940Z,974.26
2019-03-30T23:59:09.997Z,974.24
